Pagina 124 di 125

Re: Terremoti: segnalazioni sismiche in tempo reale, discuss

MessaggioInviato: 31/12/2017, 1:30
da Ivan 72
Eventi sismici del 30 dicembre 2017 :

2017-12-30 20:42:18 ML 2.1 1 km SE Castelsantangelo sul Nera (MC) 9 42.89 13.16
2017-12-30 18:46:20 ML 2.0 Tirreno Meridionale (MARE) 11 39.60 15.23
2017-12-30 18:22:21 ML 2.2 4 km N Borso del Grappa (TV) 12 45.86 11.79
2017-12-30 11:23:37 ML 2.1 3 km SW Lerma (AL) 10 44.62 8.70
2017-12-30 07:37:07 ML 2.3 2 km E Caino (BS) 27 45.62 10.35
2017-12-30 07:25:46 ML 2.4 8 km NW Arquata del Tronto (AP) 15 42.82 13.23

Altri eventi sismici del 29 e 30 dicembre 2017 di magnitudo superiore o uguale a 5.0 nel mondo oltre a quelli già segnalati :

5.2 124km SSE of Putre, Chile 2017-12-30 08:20:49 (UTC) 82.6 km
5.7 78km E of Kimbe, Papua New Guinea 2017-12-29 23:55:56 (UTC) 95.8 km

Re: Terremoti: segnalazioni sismiche in tempo reale, discuss

MessaggioInviato: 03/01/2018, 0:14
da Ivan 72
Eventi sismici del 31 dicembre 2017, 01 e 02 gennaio 2018 :

2018-01-02 22:01:37 ML 2.0 Confine Italia Francia (FRANCIA) 21 44.08 7.60
2018-01-02 15:27:45 ML 2.7 Adriatico Meridionale (MARE) 12 41.18 17.86
2018-01-02 13:58:28 ML 2.0 6 km E Barete (AQ) 14 42.48 13.34
2018-01-02 12:24:32 ML 3.0 Isole Eolie (Messina) 7 38.70 14.29
2018-01-02 12:16:14 ML 2.3 Confine Svizzera Francia (SVIZZERA, FRANCIA) 12 46.10 6.89
2018-01-02 12:07:37 ML 3.5 Isole Eolie (Messina) 9 38.69 14.31
2018-01-02 08:17:02 ML 2.5 Tirreno Meridionale (MARE) 131 38.46 15.31
2018-01-01 00:27:58 ML 2.2 6 km N Cittareale (RI) 13 42.67 13.17
2017-12-31 16:03:14 ML 2.3 3 km E Capitignano (AQ) 14 42.52 13.34
2017-12-31 14:00:07 ML 2.2 6 km N Ragalna (CT) 5 37.68 14.94
2017-12-31 09:52:29 ML 2.2 6 km SE Giffone (RC) 9 38.39 16.17
2017-12-31 08:44:23 ML 2.3 3 km SE Niscemi (CL) 26 37.13 14.42
2017-12-31 03:29:12 ML 2.8 Tirreno Meridionale (MARE) 306 38.57 15.34
2017-12-31 03:15:30 ML 2.1 Costa Siciliana nord orientale (Messina) 116 38.37 15.28

Altri eventi sismici dal 31 dicembre 2017 al 02 gennaio 2018 di magnitudo superiore o uguale a 5.0 nel mondo :

5.0 11km SW of El Affroun, Algeria 2018-01-02 20:59:39 (UTC) 13.2 km
5.9 South of the Fiji Islands 2018-01-02 14:57:18 (UTC) 576.6 km
5.0 70km NNE of Isangel, Vanuatu 2018-01-02 08:10:00 (UTC) 242.5 km
5.1 12km W of Rodopolis, Greece 2018-01-02 04:24:17 (UTC) 6.0 km
5.3 Southwest Indian Ridge 2018-01-02 02:16:18 (UTC) 10.0 km
5.2 Southern East Pacific Rise 2017-12-31 20:59:03 (UTC) 10.0 km
5.0 Chagos Archipelago region 2017-12-31 20:27:49 (UTC) 10.0 km
5.1 42km SSW of Maasin, Philippines 2017-12-31 14:53:32 (UTC) 39.9 km
5.1 135km SSW of Lata, Solomon Islands 2017-12-31 14:51:58 (UTC) 11.3 km
5.0 9km W of Korini, Greece 2017-12-31 04:02:19 (UTC) 10.0 km
5.0 146km N of Naze, Japan 2017-12-31 03:48:57 (UTC) 165.5 km

Re: Terremoti: segnalazioni sismiche in tempo reale, discuss

MessaggioInviato: 03/01/2018, 19:56
da Danielect
Immagini etnee di giorno 1 gennaio. In successione, da est, da ovest e da nord.

Re: Terremoti: segnalazioni sismiche in tempo reale, discuss

MessaggioInviato: 03/01/2018, 20:20
da Cesare1952
La seconda Foto e' strepitosa!

Re: Terremoti: segnalazioni sismiche in tempo reale, discuss

MessaggioInviato: 03/01/2018, 23:30
da Ivan 72
Eventi sismici del 02 e 03 gennaio 2018 oltre a quelli già segnalati :

2018-01-03 21:08:57 ML 2.0 2 km SW Schiavon (VI) 5 45.68 11.63
2018-01-03 19:25:30 ML 2.5 2 km SW Schiavon (VI) 5 45.68 11.63
2018-01-03 16:23:33 ML 2.0 3 km NW Ussita (MC) 10 42.96 13.11
2018-01-03 03:36:03 ML 2.0 6 km N Montereale (AQ) 10 42.57 13.23
2018-01-03 00:57:01 ML 2.5 6 km NW Montereale (AQ) 10 42.57 13.23
2018-01-02 23:51:14 ML 2.0 4 km SW Fiastra (MC) 9 43.01 13.13

Altri eventi sismici del 03 gennaio 2018 di magnitudo superiore o uguale a 5.0 nel mondo :

5.1 29km SSE of La Libertad, El Salvador 2018-01-03 13:38:40 (UTC) 79.8 km
5.1 157km SSW of Merizo Village, Guam 2018-01-03 12:21:32 (UTC) 31.9 km

Re: Terremoti: segnalazioni sismiche in tempo reale, discuss

MessaggioInviato: 04/01/2018, 23:48
da Ivan 72
Eventi sismici del 03 e 04 gennaio 2018 oltre a quelli già segnalati :

2018-01-04 21:16:29 ML 2.2 7 km NW Fontanelice (BO) 25 44.31 11.50
2018-01-04 16:08:44 ML 2.3 6 km E Castel di Iudica (CT) 4 37.48 14.72
2018-01-04 12:51:43 ML 2.0 4 km S Vastogirardi (IS) 17 41.74 14.25
2018-01-04 11:59:36 ML 2.1 1 km SE Pareto (AL) 10 44.51 8.39
2018-01-04 09:36:45 ML 2.0 1 km N Monte Cavallo (MC) 8 43.01 13.00
2018-01-04 01:41:51 ML 2.0 3 km N Monte Porzio Catone (RM) 10 41.85 12.71
2018-01-03 23:28:05 ML 2.3 18 km E Santa Marina Salina (ME) 300 38.64 15.06

Altri eventi sismici del 03 e 04 gennaio 2018 di magnitudo superiore o uguale a 5.0 nel mondo oltre a quelli già segnalati :

5.3 80km ENE of Petropavlovsk-Kamchatskiy, Russia 2018-01-04 02:44:58 (UTC) 67.0 km
5.1 Izu Islands, Japan region 2018-01-03 21:32:52 (UTC) 25.1 km
5.4 Izu Islands, Japan region 2018-01-03 21:30:22 (UTC) 10.0 km

Re: Terremoti: segnalazioni sismiche in tempo reale, discuss

MessaggioInviato: 05/01/2018, 22:46
da Ivan 72
Eventi sismici del 05 gennaio 2018 :

2018-01-05 19:54:49 ML 3.1 3 km SE Ussita (MC) 9 42.92 13.16
2018-01-05 16:47:55 ML 2.5 8 km E Norcia (PG) 11 42.81 13.19
2018-01-05 15:55:03 ML 2.5 4 km NW Amatrice (RI) 10 42.65 13.25
2018-01-05 08:28:40 ML 2.1 2 km NE Pizzoli (AQ) 11 42.45 13.32
2018-01-05 07:25:20 ML 3.1 Tirreno Meridionale (MARE) 157 38.41 15.39
2018-01-05 01:11:01 ML 2.2 3 km SW Pieve Torina (MC) 9 43.02 13.04

Altri eventi sismici del 05 gennaio 2018 di magnitudo superiore o uguale a 5.0 nel mondo :

5.2 136km N of Lae, Papua New Guinea 2018-01-05 16:36:22 (UTC) 169.7 km

Re: Terremoti: segnalazioni sismiche in tempo reale, discuss

MessaggioInviato: 07/01/2018, 1:23
da Ivan 72
Eventi sismici del 06 gennaio 2018 :

2018-01-06 22:36:53 ML 2.0 1 km SW Fiordimonte (MC) 9 43.03 13.08
2018-01-06 22:05:13 ML 2.2 3 km S Pieve Torina (MC) 9 43.02 13.04
2018-01-06 21:59:07 ML 2.3 3 km NE Monte Cavallo (MC) 8 43.01 13.04
2018-01-06 15:26:57 ML 2.4 2 km SE Ussita (MC) 15 42.93 13.15
2018-01-06 11:40:06 ML 2.0 4 km E Amatrice (RI) 7 42.61 13.34
2018-01-06 06:53:07 ML 2.0 3 km W Pieve Torina (MC) 8 43.04 13.01
2018-01-06 06:20:18 ML 2.9 3 km W Pieve Torina (MC) 9 43.04 13.01
2018-01-06 02:47:47 ML 2.2 2 km S Vastogirardi (IS) 16 41.75 14.27
2018-01-06 01:26:26 ML 2.3 Mar Ionio Meridionale (MARE) 6 36.39 16.14

Altri eventi sismici del 06 gennaio 2018 di magnitudo superiore o uguale a 5.0 nel mondo :

5.0 193km SE of Sarangani, Philippines 2018-01-06 18:35:10 (UTC) 43.3 km
5.1 63km SSE of Bitung, Indonesia 2018-01-06 15:39:44 (UTC) 83.5 km
5.0 21km NNW of Sarpol-e Zahab, Iran 2018-01-06 15:22:09 (UTC) 10.0 km

Re: Terremoti: segnalazioni sismiche in tempo reale, discuss

MessaggioInviato: 07/01/2018, 23:43
da Danielect
Etna ieri, dal versante nord. Continua la fase di assoluta assenza di fenomeni significativi, mentre siamo entrati nel decimo anno dall'ultima eruzione laterale!
Ultima foto, accumuli nevosi di qualche anno fa.

Re: Terremoti: segnalazioni sismiche in tempo reale, discuss

MessaggioInviato: 08/01/2018, 10:11
da Cesare1952
Fase calma un po' su tutta Italia come meteo...

Re: Terremoti: segnalazioni sismiche in tempo reale, discuss

MessaggioInviato: 08/01/2018, 23:56
da Ivan 72
Eventi sismici del 07 e 08 gennaio 2018 :

2018-01-08 14:04:39 ML 2.0 4 km SE Monte Cavallo (MC) 9 42.97 13.03
2018-01-08 12:22:05 ML 2.7 Costa Siciliana nord orientale (Messina) 12 38.40 14.33
2018-01-08 09:18:49 ML 2.4 Confine Austria Svizzera (AUSTRIA, SVIZZERA) 10 46.87 10.07
2018-01-08 08:59:04 ML 2.4 2 km E Muro Lucano (PZ) 5 40.75 15.50
2018-01-07 15:07:34 ML 2.2 Isole Eolie (Messina) 12 38.56 14.71
2018-01-07 03:45:15 ML 2.4 3 km E Cutigliano (PT) 14 44.10 10.80
2018-01-07 02:53:20 ML 2.3 2 km NE Pietrelcina (BN) 17 41.22 14.87
2018-01-07 02:36:59 ML 2.0 Tirreno Meridionale (MARE) 11 39.38 15.21
2018-01-07 01:17:25 ML 2.0 4 km SW Fermignano (PU) 40 43.65 12.62

Altri eventi sismici del 07 e 08 gennaio 2018 di magnitudo superiore o uguale a 5.0 nel mondo :

5.0 177km NW of Tobelo, Indonesia 2018-01-08 14:09:47 (UTC) 36.4 km
5.1 10km NE of Aratoca, Colombia 2018-01-08 12:58:28 (UTC) 169.3 km
5.1 54km S of Intipuca, El Salvador 2018-01-07 08:55:30 (UTC) 62.6 km
5.5 86km E of Yairipok, India 2018-01-07 06:47:14 (UTC) 22.8 km
5.7 22km SW of Nikol'skoye, Russia 2018-01-07 02:24:06 (UTC) 35.0 km
5.0 142km E of Agrihan, Northern Mariana Islands 2018-01-07 00:42:25 (UTC) 35.0 km

Re: Terremoti: segnalazioni sismiche in tempo reale, discuss

MessaggioInviato: 09/01/2018, 19:47
da Danielect
Oggi ricorre l'anniversario del doppio sisma del gennaio 1693, che colpì la Sicilia orientale. La prima scossa venne registrata 325 anni fa, il 9 gennaio 1693. Grado 6.07 Richter. Quella ancora più forte due giorni dopo. Ma farò altro resoconto su quella.
Ecco la mappa degli effetti della scossa "più lieve" del 9 gennaio 1693:
https://emidius.mi.ingv.it/CPTI15-DBMI1 ... 9_2100_000

Ed ecco un'intervista all'amico vulcanologo Marco Neri:
https://www.meteoetna.com/rai-1-petroli ... oto-video/

Re: Terremoti: segnalazioni sismiche in tempo reale, discuss

MessaggioInviato: 09/01/2018, 19:55
da Cesare1952
Quindi non colpi' affatto l'area Messinese-Reggina.

Re: Terremoti: segnalazioni sismiche in tempo reale, discuss

MessaggioInviato: 09/01/2018, 20:28
da Danielect
Cesare1952 ha scritto:Quindi non colpi' affatto l'area Messinese-Reggina.


No, in quell'occasione no. Anche se la scossa di giorno 11 gennaio portò danni e feriti anche tra Messina e Reggio Calabria. Ma ne parlerò nel prossimo post.

Re: Terremoti: segnalazioni sismiche in tempo reale, discuss

MessaggioInviato: 10/01/2018, 0:27
da Ivan 72
Eventi sismici del 09 gennaio 2018 :

2018-01-09 19:50:54 ML 2.4 2 km SE Varano de' Melegari (PR) 10 44.68 10.03
2018-01-09 19:39:31 ML 2.0 2 km SE Vastogirardi (IS) 15 41.76 14.27
2018-01-09 19:35:19 ML 2.0 4 km S Vastogirardi (IS) 18 41.74 14.25
2018-01-09 18:36:34 ML 2.2 Isole Eolie (Messina) 6 38.41 14.36
2018-01-09 18:29:24 ML 2.1 3 km W Carovilli (IS) 20 41.72 14.26
2018-01-09 17:58:01 ML 3.6 Isole Eolie (Messina) 19 38.42 14.44
2018-01-09 17:29:09 ML 2.1 2 km NW Carovilli (IS) 19 41.73 14.27
2018-01-09 16:46:49 ML 2.1 3 km S Vastogirardi (IS) 17 41.75 14.26
2018-01-09 15:43:10 ML 3.2 Isole Eolie (Messina) 20 38.43 14.25
2018-01-09 15:42:13 ML 2.6 Costa Siciliana nord orientale (Messina) 12 38.40 14.31
2018-01-09 12:29:13 ML 2.0 5 km SE Fiordimonte (MC) 11 43.00 13.12
2018-01-09 01:01:32 ML 2.4 Tirreno Meridionale (MARE) 230 39.22 15.54

Altri eventi sismici del 09 gennaio 2018 di magnitudo superiore o uguale a 5.0 nel mondo :

5.1 271km N of Puerto Ayora, Ecuador 2018-01-09 00:05:54 (UTC) 10.0 km
5.0 105km ESE of Vanj, Tajikistan 2018-01-09 00:05:49 (UTC) 112.1 km

Re: Terremoti: segnalazioni sismiche in tempo reale, discuss

MessaggioInviato: 11/01/2018, 0:26
da Ivan 72
Eventi sismici del 10 gennaio 2018 :

2018-01-10 08:38:45 ML 2.1 5 km SW Fornovo di Taro (PR) 26 44.66 10.07
2018-01-10 07:03:16 ML 2.4 3 km SE Varano de' Melegari (PR) 9 44.67 10.05
2018-01-10 06:11:40 ML 2.2 1 km N Fiordimonte (MC) 5 43.05 13.09
2018-01-10 00:22:02 ML 2.8 Costa Calabra sud occidentale (Catanzaro, Vibo Valentia, Reggio di Calabria) 106 38.93 15.72

Altri eventi sismici del 09 e 10 gennaio 2018 di magnitudo superiore o uguale a 5.0 nel mondo oltre a quelli già segnalati :

5.0 Southern East Pacific Rise 2018-01-10 11:20:12 (UTC) 10.0 km
5.1 127km ESE of Tadine, New Caledonia 2018-01-10 05:12:11 (UTC) 10.0 km
5.0 18km E of Putre, Chile 2018-01-10 03:16:44 (UTC) 124.9 km
7.6 44km E of Great Swan Island, Honduras 2018-01-10 02:51:31 (UTC) 10.0 km
5.0 227km WNW of Farallon de Pajaros, Northern Mariana Islands 2018-01-10 01:46:02 (UTC) 300.3 km
5.2 136km S of Raoul Island, New Zealand 2018-01-10 01:03:50 (UTC) 68.8 km
5.4 60km SE of Hasaki, Japan 2018-01-09 22:30:18 (UTC) 15.0 km

Re: Terremoti: segnalazioni sismiche in tempo reale, discuss

MessaggioInviato: 11/01/2018, 20:45
da Danielect
Esattamente oggi sono trascorsi 325 anni dal sisma di magnitudo 7.32 che colpì la Sicilia Orientale, ma che ebbe effetti molto più estesi. E' il terremoto più forte mai registrato in Italia e in Europa fino a questo momento. Le stime del tempo parlano di circa 54 mila morti. A Catania persero la vita circa 12 mila persone su quasi 19 mila abitanti. A Modica, su 18203 abitanti, ne morirono 3400, a Ragusa, su 9946 abitanti persero la vita 5000 persone, a Vittoria su 3950 i morti furono 200, a Scicli le vittime furono 2000 su 9382 abitanti, a Ispica, morirono 2.200 persone su 7987 residenti, a Giarratana su 2981 persero la vita 541 abitanti e a Monterosso Almo perirono 232 su 2340 persone, 1.840 (30%) ad Augusta, 3.000 (25%) a Noto, 3.500 (23%) a Siracusa. Solo per dare alcuni numeri. Basti pensare che solo l’area dei danni più gravi risultò estesa su un vasto territorio di oltre 14.000 kmq, che venne completamente devastato. Tutta la Sicilia orientale fu gravemente colpita. Furono 45 i comuni devastati. Crolli e danni gravi si ebbero fino a Messina e alla costa tirrenica (Patti e Naso), verso nord, e fino a Malta verso sud. Danni diffusi e rilevanti furono riscontrati a Reggio Calabria, Agrigento e addirittura a Palermo, situata a più di 150 km dall’area epicentrale. Danni più leggeri si ebbero fino alle Isole Eolie e in alcuni centri della Calabria centro-meridionale. Furono gravemente colpiti tutti i centri di grande importanza economica e culturale dell’area. Catania, Acireale e i piccoli centri del versante sud-orientale dell’Etna furono quasi interamente distrutti. Tutti i centri della Val di Noto furono praticamente rasi al suolo: tra questi, solo per citarne alcuni, Sortino, Ragusa, Modica, Melilli, Lentini, Avola, Augusta, Noto. Molti crolli e danni estesi si ebbero a Siracusa, Caltagirone, Vittoria, Comiso. Il sisma provocò anche onde di maremoto che raggiunsero i 12 metri ad Augusta. Addirittura il mare si spinse per oltre un chilometro e mezzo all'interno nella zona di Mascali, versante est dell'Etna.
Qui un link degli effetti del maremoto:
http://www.ultimatv.it/2017/01/11/terre ... l-di-noto/
Qui il link degli effetti di quel terremoto, con relativa mappa:
https://emidius.mi.ingv.it/CPTI15-DBMI1 ... 1_1330_000
Qui, invece, la mappa del sisma del 28 dicembre 1908 nello Stretto di Messina, il secondo terremoto più forte registrato in Italia e in Europa, magnitudo 7.10:
https://emidius.mi.ingv.it/CPTI15-DBMI1 ... 8_0420_000

Infine ecco il resoconto degli effetti del sisma, città per città:

Catania - totalmente devastata dal terremoto e dal maremoto.

Ragusa - totalmente devastata dal terremoto. Ogni anno, giorno 11 gennaio, si svolge una fiaccolata e suonano le campane all'ora in cui ci fu la scossa. Ogni anno, da allora. Non si è mai interrotto il rito, neanche nei periodi di guerra. Ecco il suono dell'anno scorso dal Duomo di San Giorgio a Ragusa Ibla:
https://www.youtube.com/watch?v=v-_u5LYZjfU
https://www.facebook.com/SanGiorgioPatr ... =3&theater

Siracusa - quasi totalmente devastata dal terremoto e dal maremoto

Messina - gravemente danneggiata dal terremoto e dal successivo maremoto (si parla anche di molti feriti)

Reggio Calabria - gravemente danneggiata dal terremoto e dal successivo maremoto (si parla anche di feriti)

Enna - gravemente danneggiata dal terremoto, con feriti e vittime

Palermo - gravi danni

Caltanissetta - gravi danni

Agrigento - danni ben visibili

Trapani - scossa distintamente avvertita

Malta - danni importanti, tra cui il crollo della Cattedrale di San Paolo, a Medina.

Re: Terremoti: segnalazioni sismiche in tempo reale, discuss

MessaggioInviato: 11/01/2018, 20:52
da Cesare1952
La stessa Faglia del 1908?

Re: Terremoti: segnalazioni sismiche in tempo reale, discuss

MessaggioInviato: 11/01/2018, 21:01
da Danielect
No, sono sistemi diversi. Fortunatamente sono eventi con tempi di ritorno secolari. Addirittura per il sisma dello Stretto non si ha un precedente, a memoria d'uomo, prima del 1908.

Re: Terremoti: segnalazioni sismiche in tempo reale, discuss

MessaggioInviato: 11/01/2018, 23:57
da Ivan 72
Eventi sismici dell'11 gennaio 2018 :

2018-01-11 21:39:39 ML 2.5 3 km NE Accumoli (RI) 12 42.72 13.26
2018-01-11 21:30:34 ML 2.1 a L'Aquila ovest Viale Corrado IV zona Piazza d'Armi 19 42.36 13.38
2018-01-11 19:31:45 ML 2.6 Tirreno Meridionale (MARE) 204 38.75 15.49
2018-01-11 16:37:09 ML 2.2 5 km NE Castelnuovo di Val di Cecina (PI) 4 43.24 10.95
2018-01-11 12:28:54 Md 2.1 Tirreno Meridionale (MARE) 133 38.47 15.42
2018-01-11 08:17:28 ML 2.1 4 km S Preci (PG) 11 42.85 13.04
2018-01-11 06:07:23 ML 2.1 3 km NE Amatrice (RI) 7 42.65 13.32
2018-01-11 04:48:02 Mw 3.4 2 km NE Amatrice (RI) 10 42.64 13.31
2018-01-11 00:03:31 ML 2.7 6 km SE Varsi (PR) 9 44.63 9.91

Altri eventi sismici dell'11 gennaio 2018 di magnitudo superiore o uguale a 5.0 nel mondo :

5.3 38km W of Pyu, Burma 2018-01-11 18:44:00 (UTC) 10.0 km
5.2 27km W of Pyu, Burma 2018-01-11 18:42:59 (UTC) 10.0 km
5.3 39km WSW of Pyu, Burma 2018-01-11 18:38:12 (UTC) 10.0 km
6.0 39km WSW of Pyu, Burma 2018-01-11 18:26:24 (UTC) 10.0 km
5.5 South of the Fiji Islands 2018-01-11 17:53:33 (UTC) 508.2 km
5.0 18km NNE of Tilaran, Costa Rica 2018-01-11 17:03:18 (UTC) 10.0 km
5.0 Reykjanes Ridge 2018-01-11 09:46:08 (UTC) 10.0 km
5.4 14km E of Mandali, Iraq 2018-01-11 08:00:40 (UTC) 10.0 km
5.0 20km E of Mandali, Iraq 2018-01-11 07:55:01 (UTC) 10.0 km
5.4 27km E of Mehran, Iran 2018-01-11 07:21:43 (UTC) 10.0 km
5.2 22km ENE of Mandali, Iraq 2018-01-11 07:14:16 (UTC) 10.0 km
5.3 23km ENE of Mandali, Iraq 2018-01-11 07:00:52 (UTC) 10.0 km
5.5 18km E of Mandali, Iraq 2018-01-11 06:59:31 (UTC) 10.0 km
5.1 187km SE of Hirara, Japan 2018-01-11 00:43:40 (UTC) 10.0 km

Re: Terremoti: segnalazioni sismiche in tempo reale, discuss

MessaggioInviato: 12/01/2018, 23:20
da Ivan 72
Eventi sismici del 12 gennaio 2018 :

2018-01-12 20:22:33 ML 2.5 3 km E Norcia (PG) 10 42.80 13.12
2018-01-12 19:07:14 ML 2.4 Tirreno Meridionale (MARE) 154 38.55 15.45
2018-01-12 15:59:29 ML 2.1 4 km NW Zafferana Etnea (CT) 5 37.71 15.07
2018-01-12 12:13:49 ML 2.4 5 km SW Castellana Sicula (PA) 36 37.74 14.01
2018-01-12 10:28:19 ML 2.2 4 km W Arquata del Tronto (AP) 14 42.77 13.25
2018-01-12 08:57:59 ML 2.2 3 km SE Fiordimonte (MC) 9 43.02 13.11
2018-01-12 04:41:39 ML 2.0 10 km N L'Aquila (AQ) 9 42.44 13.43

Altri eventi sismici del 12 gennaio 2018 di magnitudo superiore o uguale a 5.0 nel mondo :

5.0 80km SW of Hihifo, Tonga 2018-01-12 13:00:04 (UTC) 138.7 km

Re: Terremoti: segnalazioni sismiche in tempo reale, discuss

MessaggioInviato: 14/01/2018, 1:17
da Ivan 72
Eventi sismici del 13 gennaio 2018 :

2018-01-13 16:05:25 ML 2.9 Mar Ionio Settentrionale (MARE) 24 39.70 18.70
2018-01-13 15:53:22 ML 2.5 4 km NW Zafferana Etnea (CT) 4 37.72 15.07
2018-01-13 07:33:31 ML 2.8 Isole Eolie (Messina) 12 38.55 14.68
2018-01-13 06:34:33 ML 2.2 2 km NW Pieve Torina (MC) 9 43.06 13.03
2018-01-13 05:56:17 ML 2.1 Confine Italia Francia (FRANCIA) 10 44.15 7.20
2018-01-13 05:49:52 ML 2.3 Costa Marchigiana Fermana (Fermo) 6 43.33 13.87
2018-01-13 02:59:15 ML 2.0 6 km E Norcia (PG) 10 42.82 13.16

Altri eventi sismici del 13 gennaio 2018 di magnitudo superiore o uguale a 5.0 nel mondo :

5.9 145km SE of Kirakira, Solomon Islands 2018-01-13 11:24:37 (UTC) 23.5 km
5.2 37km WSW of Little Sitkin Island, Alaska 2018-01-13 01:35:21 (UTC) 75.5 km

Re: Terremoti: segnalazioni sismiche in tempo reale, discuss

MessaggioInviato: 14/01/2018, 19:05
da Danielect
Il 15 gennaio 1968 si scatenò un forte terremoto di 6.41 Richter nella Valle del Belice, Sicilia Occidentale. 50 anni fa.
Qui un articolo per ricordare e il link della mappa degli effetti di quel sisma.
http://www.conosceregeologia.it/2018/01 ... e-sicilia/

https://emidius.mi.ingv.it/CPTI15-DBMI1 ... 5_0201_000

Re: Terremoti: segnalazioni sismiche in tempo reale, discuss

MessaggioInviato: 14/01/2018, 19:11
da Cesare1952
Me li ricordo quei giorni e poi la ricostruzione avvenuta fra ritardi ed errori...

Re: Terremoti: segnalazioni sismiche in tempo reale, discuss

MessaggioInviato: 14/01/2018, 19:12
da Danielect
Cesare, il Belice era una zona povera, senza neanche strade praticamente. Non è che interessava molto occuparsi della sua ricostruzione...Oggi invece è una realtà che, seppure risenta ancora di quel dramma e di quei ritardi orrendi, sta ingranando la marcia.

Re: Terremoti: segnalazioni sismiche in tempo reale, discuss

MessaggioInviato: 15/01/2018, 11:30
da Cesare1952

Re: Terremoti: segnalazioni sismiche in tempo reale, discuss

MessaggioInviato: 15/01/2018, 19:35
da Danielect
Anche il gran freddo di quelle notti...

Re: Terremoti: segnalazioni sismiche in tempo reale, discuss

MessaggioInviato: 15/01/2018, 19:42
da Danielect
La Bella addormentata continua a dormire, con le sue fumate bianche. Bellissima sabato dal versante nord e nord-ovest, in particolare da Bronte, dove si è fatta provvista di pistacchio.

Re: Terremoti: segnalazioni sismiche in tempo reale, discuss

MessaggioInviato: 15/01/2018, 19:43
da Cesare1952
Sembrano dei dipinti.....

Re: Terremoti: segnalazioni sismiche in tempo reale, discuss

MessaggioInviato: 16/01/2018, 0:13
da Ivan 72
Bellissime foto etnee, Grazie Daniele :razz:

W il pistacchio !!!

Eventi sismici del 14 e 15 gennaio 2018 :

2018-01-15 18:08:54 ML 2.4 3 km E Arlena di Castro (VT) 7 42.46 11.87
2018-01-15 16:58:23 ML 2.1 2 km SW Muccia (MC) 10 43.07 13.03
2018-01-15 10:26:54 ML 2.5 4 km SW Fiastra (MC) 10 43.01 13.14
2018-01-15 10:15:07 ML 2.0 Costa Siciliana nord orientale (Messina) 124 38.39 15.44
2018-01-15 08:50:01 ML 2.0 3 km S Pieve Torina (MC) 7 43.02 13.06
2018-01-15 05:49:50 ML 2.5 6 km NW Arquata del Tronto (AP) 15 42.82 13.25
2018-01-15 01:34:06 ML 2.1 6 km NE Tuscania (VT) 8 42.47 11.90
2018-01-14 23:57:15 ML 2.0 Confine Italia Svizzera (SVIZZERA) 10 46.27 7.43
2018-01-14 17:48:33 ML 2.0 2 km N Amatrice (RI) 11 42.65 13.29
2018-01-14 16:00:53 ML 2.3 6 km SE Foggia (FG) 6 41.42 15.57
2018-01-14 15:16:01 ML 2.2 2 km W Potenza (PZ) 17 40.64 15.78
2018-01-14 13:37:31 ML 2.5 3 km S Maletto (CT) 25 37.81 14.87
2018-01-14 11:40:53 ML 2.4 3 km SE Maletto (CT) 29 37.82 14.89
2018-01-14 09:41:02 ML 2.4 3 km W Pieve Torina (MC) 9 43.04 13.01
2018-01-14 08:35:26 ML 2.3 Isole Eolie (Messina) 155 38.41 15.17
2018-01-14 01:36:24 ML 2.0 4 km NE Villavallelonga (AQ) 16 41.89 13.66

Altri eventi sismici del 14 e 15 gennaio 2018 di magnitudo superiore o uguale a 5.0 nel mondo :

5.0 94km E of Nishinoomote, Japan 2018-01-15 20:41:39 (UTC) 19.5 km
5.2 180km SSW of Sigave, Wallis and Futuna 2018-01-15 08:18:24 (UTC) 10.0 km
5.2 34km WNW of Molibagu, Indonesia 2018-01-15 06:31:50 (UTC) 238.7 km
5.3 50km NE of Luganville, Vanuatu 2018-01-15 02:28:35 (UTC) 128.7 km
5.5 110km WNW of Madang, Papua New Guinea 2018-01-14 21:54:36 (UTC) 65.2 km
5.1 12km NE of Paluan, Philippines 2018-01-14 15:49:25 (UTC) 35.0 km
5.3 42km S of Jarm, Afghanistan 2018-01-14 09:19:30 (UTC) 204.2 km
7.1 40km SSW of Acari, Peru 2018-01-14 09:18:45 (UTC) 36.3 km